createdAt,value
2023-06-23T00:01:51.507Z,100047.00
2023-06-23T00:04:20.905Z,100033.00
2023-06-23T00:06:48.872Z,100027.00
2023-06-23T00:09:16.832Z,100013.00
2023-06-23T00:11:45.027Z,100009.00
2023-06-23T00:14:13.911Z,100006.00
2023-06-23T00:16:41.991Z,100010.00
2023-06-23T00:19:10.060Z,99998.00
2023-06-23T00:21:38.570Z,99986.00
2023-06-23T00:24:06.965Z,99985.00
2023-06-23T00:26:35.729Z,99983.00
2023-06-23T00:29:06.499Z,99977.00
2023-06-23T00:31:35.227Z,99972.00
2023-06-23T00:34:03.157Z,99977.00
2023-06-23T00:36:32.269Z,99978.00
2023-06-23T00:39:03.931Z,99982.00
2023-06-23T00:41:31.972Z,99976.00
2023-06-23T00:44:00.523Z,99975.00
2023-06-23T00:46:29.472Z,99975.00
2023-06-23T00:48:57.607Z,99966.00
2023-06-23T00:51:27.307Z,99973.00
2023-06-23T00:53:55.940Z,99976.00
2023-06-23T00:56:25.733Z,99968.00
2023-06-23T00:58:55.962Z,99961.00
2023-06-23T01:01:24.108Z,99966.00
2023-06-23T01:03:52.182Z,99962.00
2023-06-23T01:06:29.280Z,99956.00
2023-06-23T01:09:32.863Z,99973.00
2023-06-23T01:12:27.003Z,99971.00
2023-06-23T01:14:59.536Z,99981.00
2023-06-23T01:17:33.409Z,99982.00
2023-06-23T01:20:22.752Z,99985.00
2023-06-23T01:23:25.242Z,99982.00
2023-06-23T01:25:57.471Z,99977.00
2023-06-23T01:28:50.005Z,99989.00
2023-06-23T01:31:32.981Z,99997.00
2023-06-23T01:34:05.171Z,99992.00
2023-06-23T01:36:50.653Z,99995.00
2023-06-23T01:39:21.141Z,99999.00
2023-06-23T01:41:58.237Z,99998.00
2023-06-23T01:44:30.808Z,100009.00
2023-06-23T01:47:02.076Z,100008.00
2023-06-23T01:49:37.940Z,100011.00
2023-06-23T01:52:10.629Z,100016.00
2023-06-23T01:54:41.936Z,100013.00
2023-06-23T01:57:13.481Z,100013.00
2023-06-23T02:02:26.808Z,100011.00
2023-06-23T02:04:57.382Z,99995.00
2023-06-23T02:07:26.006Z,99995.00
2023-06-23T02:09:54.636Z,99990.00
2023-06-23T02:12:22.812Z,99986.00
2023-06-23T02:14:51.322Z,99967.00
2023-06-23T02:17:19.876Z,99966.00
2023-06-23T02:19:50.326Z,99970.00
2023-06-23T02:22:25.245Z,99982.00
2023-06-23T02:24:53.743Z,99991.00
2023-06-23T02:27:22.954Z,99992.00
2023-06-23T02:29:51.571Z,99991.00
2023-06-23T02:32:19.880Z,99983.00
2023-06-23T02:34:49.130Z,99976.00
2023-06-23T02:37:21.611Z,99990.00
2023-06-23T02:40:16.542Z,99993.00
2023-06-23T02:43:03.826Z,99985.00
2023-06-23T02:45:36.853Z,99987.00
2023-06-23T02:48:09.380Z,99987.00
2023-06-23T02:50:38.086Z,99982.00
2023-06-23T02:53:10.743Z,99978.00
2023-06-23T02:55:41.299Z,99976.00
2023-06-23T02:58:12.833Z,99977.00
2023-06-23T03:00:41.039Z,99973.00
2023-06-23T03:03:16.279Z,99971.00
2023-06-23T03:05:45.047Z,99983.00
2023-06-23T03:08:13.205Z,99984.00
2023-06-23T03:10:42.915Z,99988.00
2023-06-23T03:13:11.951Z,99982.00
2023-06-23T03:15:41.172Z,99980.00
2023-06-23T03:18:16.614Z,99977.00
2023-06-23T03:20:50.770Z,99975.00
2023-06-23T03:23:20.441Z,99968.00
2023-06-23T03:25:49.927Z,99966.00
2023-06-23T03:28:33.099Z,99966.00
2023-06-23T03:31:10.365Z,99977.00
2023-06-23T03:33:46.812Z,99982.00
2023-06-23T03:36:33.900Z,99983.00
2023-06-23T03:39:05.523Z,99987.00
2023-06-23T03:41:34.127Z,99993.00
2023-06-23T03:44:14.607Z,99992.00
2023-06-23T03:46:57.358Z,99995.00
2023-06-23T03:49:30.322Z,100003.00
2023-06-23T03:52:00.691Z,100000.00
2023-06-23T03:54:28.981Z,100008.00
2023-06-23T03:56:57.515Z,100003.00
2023-06-23T03:59:27.616Z,100009.00
2023-06-23T04:05:41.408Z,100003.00
2023-06-23T04:08:10.633Z,99997.00
2023-06-23T04:10:40.081Z,100000.00
2023-06-23T04:13:08.653Z,100006.00
2023-06-23T04:15:39.371Z,100012.00
2023-06-23T04:18:09.501Z,100011.00
2023-06-23T04:20:38.669Z,100010.00
2023-06-23T04:23:07.606Z,100017.00
2023-06-23T04:25:35.878Z,100017.00
2023-06-23T04:28:06.504Z,100026.00
2023-06-23T04:30:36.397Z,100025.00
2023-06-23T04:33:04.642Z,100023.00
2023-06-23T04:35:32.856Z,100028.00
2023-06-23T04:38:10.358Z,100023.00
2023-06-23T04:40:58.490Z,100013.00
2023-06-23T04:43:33.619Z,100027.00
2023-06-23T04:46:15.511Z,100019.00
2023-06-23T04:48:47.817Z,100023.00
2023-06-23T04:51:17.998Z,100023.00
2023-06-23T04:53:49.610Z,100025.00
2023-06-23T04:56:21.573Z,100030.00
2023-06-23T04:58:55.984Z,100034.00
2023-06-23T05:01:24.473Z,100037.00
2023-06-23T05:03:54.553Z,100037.00
2023-06-23T05:06:24.214Z,100028.00
2023-06-23T05:08:53.217Z,100032.00
2023-06-23T05:11:22.832Z,100034.00
2023-06-23T05:13:52.503Z,100042.00
2023-06-23T05:16:21.467Z,100044.00
2023-06-23T05:18:49.967Z,100049.00
2023-06-23T05:21:19.834Z,100047.00
2023-06-23T05:23:53.371Z,100054.00
2023-06-23T05:26:23.160Z,100053.00
2023-06-23T05:28:54.386Z,100056.00
2023-06-23T05:31:24.907Z,100057.00
2023-06-23T05:33:56.296Z,100058.00
2023-06-23T05:36:24.880Z,100075.00
2023-06-23T05:38:53.687Z,100073.00
2023-06-23T05:41:21.855Z,100069.00
2023-06-23T05:43:49.875Z,100082.00
2023-06-23T05:46:19.009Z,100079.00
2023-06-23T05:48:56.568Z,100083.00
2023-06-23T05:51:27.187Z,100093.00
2023-06-23T05:53:57.588Z,100090.00
2023-06-23T05:56:36.891Z,100092.00
2023-06-23T05:59:08.841Z,100101.00
2023-06-23T06:01:41.543Z,100100.00
2023-06-23T06:04:15.565Z,100117.00
2023-06-23T06:06:45.912Z,100117.00
2023-06-23T06:09:15.424Z,100116.00
2023-06-23T06:11:45.080Z,100126.00
2023-06-23T06:14:13.360Z,100126.00
2023-06-23T06:16:42.212Z,100131.00
2023-06-23T06:19:11.050Z,100130.00
2023-06-23T06:21:41.499Z,100130.00
2023-06-23T06:24:11.533Z,100138.00
2023-06-23T06:26:39.796Z,100144.00
2023-06-23T06:29:08.046Z,100147.00
2023-06-23T06:31:36.060Z,100147.00
2023-06-23T06:34:04.933Z,100158.00
2023-06-23T06:36:35.870Z,100160.00
2023-06-23T06:39:04.319Z,100160.00
2023-06-23T06:41:32.722Z,100166.00
2023-06-23T06:44:00.996Z,100162.00
2023-06-23T06:46:30.543Z,100164.00
2023-06-23T06:48:59.061Z,100167.00
2023-06-23T06:51:28.689Z,100166.00
2023-06-23T06:53:56.908Z,100177.00
2023-06-23T06:56:25.507Z,100180.00
2023-06-23T06:58:53.849Z,100187.00
2023-06-23T07:01:22.210Z,100189.00
2023-06-23T07:03:50.677Z,100190.00
2023-06-23T07:06:18.938Z,100201.00
2023-06-23T07:08:46.920Z,100207.00
2023-06-23T07:11:15.436Z,100216.00
2023-06-23T07:13:43.622Z,100212.00
2023-06-23T07:16:11.826Z,100219.00
2023-06-23T07:18:40.089Z,100218.00
2023-06-23T07:21:10.315Z,100219.00
2023-06-23T07:23:39.512Z,100222.00
2023-06-23T07:26:08.035Z,100231.00
2023-06-23T07:28:36.417Z,100242.00
2023-06-23T07:31:04.998Z,100241.00
2023-06-23T07:33:33.385Z,100249.00
2023-06-23T07:36:01.639Z,100260.00
2023-06-23T07:38:30.079Z,100253.00
2023-06-23T07:40:58.319Z,100259.00
2023-06-23T07:43:28.042Z,100268.00
2023-06-23T07:45:56.139Z,100273.00
2023-06-23T07:48:24.383Z,100279.00
2023-06-23T07:50:52.709Z,100280.00
2023-06-23T07:53:24.040Z,100289.00
2023-06-23T07:55:51.705Z,100303.00
2023-06-23T07:58:19.751Z,100305.00
2023-06-23T08:00:47.748Z,100305.00
2023-06-23T08:03:16.140Z,100313.00
2023-06-23T08:05:44.323Z,100323.00
2023-06-23T08:08:12.592Z,100320.00
2023-06-23T08:10:41.886Z,100336.00
2023-06-23T08:13:11.403Z,100343.00
2023-06-23T08:15:39.759Z,100345.00
2023-06-23T08:18:08.522Z,100366.00
2023-06-23T08:20:36.768Z,100374.00
2023-06-23T08:23:04.881Z,100383.00
2023-06-23T08:25:34.340Z,100394.00
2023-06-23T08:28:02.789Z,100402.00
2023-06-23T08:30:33.439Z,100421.00
2023-06-23T08:33:01.699Z,100420.00
2023-06-23T08:35:30.437Z,100427.00
2023-06-23T08:37:58.748Z,100446.00
2023-06-23T08:40:26.614Z,100454.00
2023-06-23T08:42:55.031Z,100467.00
2023-06-23T08:45:26.322Z,100470.00
2023-06-23T08:47:54.826Z,100481.00
2023-06-23T08:50:22.776Z,100480.00
2023-06-23T08:52:50.925Z,100487.00
2023-06-23T08:55:18.886Z,100484.00
2023-06-23T08:57:49.880Z,100510.00
2023-06-23T09:00:20.035Z,100500.00
2023-06-23T09:02:48.311Z,100519.00
2023-06-23T09:05:16.477Z,100525.00
2023-06-23T09:07:44.930Z,100542.00
2023-06-23T09:10:13.602Z,100541.00
2023-06-23T09:13:09.735Z,100557.00
2023-06-23T09:15:51.563Z,100569.00
2023-06-23T09:18:26.305Z,100580.00
2023-06-23T09:20:54.661Z,100592.00
2023-06-23T09:23:24.304Z,100601.00
2023-06-23T09:25:58.111Z,100612.00
2023-06-23T09:28:29.210Z,100622.00
2023-06-23T09:30:59.388Z,100626.00
2023-06-23T09:33:28.486Z,100635.00
2023-06-23T09:35:57.961Z,100646.00
2023-06-23T09:38:27.435Z,100645.00
2023-06-23T09:41:21.883Z,100663.00
2023-06-23T09:43:57.744Z,100657.00
2023-06-23T09:46:28.639Z,100673.00
2023-06-23T09:48:56.890Z,100681.00
2023-06-23T09:52:14.759Z,100690.00
2023-06-23T09:59:43.211Z,100705.00
2023-06-23T10:06:40.745Z,100715.00
2023-06-23T10:09:11.308Z,100710.00
2023-06-23T10:11:41.715Z,100717.00
2023-06-23T10:14:12.970Z,100714.00
2023-06-23T10:16:44.755Z,100734.00
2023-06-23T10:19:17.019Z,100737.00
2023-06-23T10:21:46.003Z,100752.00
2023-06-23T10:24:19.889Z,100757.00
2023-06-23T10:26:48.857Z,100761.00
2023-06-23T10:29:17.186Z,100760.00
2023-06-23T10:31:45.173Z,100767.00
2023-06-23T10:34:14.576Z,100771.00
2023-06-23T10:36:44.116Z,100773.00
2023-06-23T10:39:12.622Z,100774.00
2023-06-23T10:41:42.419Z,100778.00
2023-06-23T10:44:10.851Z,100786.00
2023-06-23T10:46:40.076Z,100785.00
2023-06-23T10:49:09.498Z,100788.00
2023-06-23T10:51:37.992Z,100790.00
2023-06-23T10:54:09.246Z,100792.00
2023-06-23T11:00:32.866Z,100807.00
2023-06-23T11:03:01.416Z,100808.00
2023-06-23T11:05:29.962Z,100806.00
2023-06-23T11:08:06.117Z,100809.00
2023-06-23T11:10:59.406Z,100814.00
2023-06-23T11:13:57.749Z,100819.00
2023-06-23T11:16:39.505Z,100834.00
2023-06-23T11:20:36.843Z,100838.00
2023-06-23T11:23:10.076Z,100843.00
2023-06-23T11:25:46.176Z,100855.00
2023-06-23T12:37:18.210Z,100959.00
2023-06-23T12:39:56.548Z,100964.00
2023-06-23T12:42:24.802Z,100976.00
2023-06-23T12:44:52.885Z,100969.00
2023-06-23T12:47:21.251Z,100969.00
2023-06-23T12:49:52.507Z,100963.00
2023-06-23T12:52:20.519Z,100973.00
2023-06-23T12:54:52.760Z,100968.00
2023-06-23T12:57:21.738Z,100970.00
2023-06-23T12:59:52.018Z,100962.00
2023-06-23T13:02:20.689Z,100981.00
2023-06-23T13:04:48.935Z,100982.00
2023-06-23T13:07:17.154Z,100977.00
2023-06-23T13:09:48.013Z,100982.00
2023-06-23T13:12:16.872Z,100984.00
2023-06-23T13:14:45.595Z,100985.00
2023-06-23T13:17:13.511Z,100994.00
2023-06-23T13:19:42.638Z,100986.00
2023-06-23T13:22:10.773Z,101003.00
2023-06-23T13:24:39.142Z,101000.00
2023-06-23T13:27:09.939Z,100995.00
2023-06-23T13:29:41.103Z,100995.00
2023-06-23T13:32:09.170Z,101008.00
2023-06-23T13:34:38.029Z,101008.00
2023-06-23T13:37:06.566Z,101010.00
2023-06-23T13:39:36.259Z,101012.00
2023-06-23T13:42:04.589Z,101014.00
2023-06-23T13:44:32.200Z,101016.00
2023-06-23T13:47:00.342Z,101014.00
2023-06-23T13:49:28.533Z,101017.00
2023-06-23T13:51:56.710Z,101018.00
2023-06-23T13:54:25.015Z,101025.00
2023-06-23T13:56:52.962Z,101021.00
2023-06-23T13:59:20.938Z,101024.00
2023-06-23T14:01:53.169Z,101029.00
2023-06-23T14:04:21.742Z,101024.00
2023-06-23T14:06:50.030Z,101032.00
2023-06-23T14:09:18.887Z,101036.00
2023-06-23T14:11:47.092Z,101039.00
2023-06-23T14:14:15.276Z,101037.00
2023-06-23T14:16:44.021Z,101038.00
2023-06-23T14:19:11.917Z,101037.00
2023-06-23T14:21:42.136Z,101037.00
2023-06-23T14:24:10.196Z,101035.00
2023-06-23T14:26:38.609Z,101046.00
2023-06-23T14:29:06.892Z,101047.00
2023-06-23T14:31:36.586Z,101041.00
2023-06-23T14:34:05.224Z,101051.00
2023-06-23T14:36:33.373Z,101051.00
2023-06-23T14:39:01.308Z,101052.00
2023-06-23T14:41:29.809Z,101056.00
2023-06-23T14:43:58.448Z,101049.00
2023-06-23T14:46:26.509Z,101059.00
2023-06-23T14:48:54.227Z,101060.00
2023-06-23T14:51:23.525Z,101058.00
2023-06-23T14:53:51.827Z,101057.00
2023-06-23T14:56:19.692Z,101067.00
2023-06-23T14:58:47.547Z,101073.00
2023-06-23T15:01:16.442Z,101063.00
2023-06-23T15:03:44.640Z,101068.00
2023-06-23T15:06:12.716Z,101068.00
2023-06-23T15:08:41.202Z,101069.00
2023-06-23T15:11:08.982Z,101075.00
2023-06-23T15:13:39.475Z,101076.00
2023-06-23T15:16:07.418Z,101075.00
2023-06-23T15:18:35.693Z,101079.00
2023-06-23T15:21:03.762Z,101080.00
2023-06-23T15:23:31.710Z,101083.00
2023-06-23T15:26:00.511Z,101078.00
2023-06-23T15:28:32.604Z,101089.00
2023-06-23T15:31:01.556Z,101087.00
2023-06-23T15:33:30.640Z,101093.00
2023-06-23T15:35:59.665Z,101087.00
2023-06-23T15:38:27.838Z,101089.00
2023-06-23T15:40:56.468Z,101090.00
2023-06-23T15:43:24.639Z,101093.00
2023-06-23T15:45:52.653Z,101093.00
2023-06-23T15:48:21.258Z,101107.00
2023-06-23T15:50:49.590Z,101103.00
2023-06-23T15:53:17.904Z,101100.00
2023-06-23T15:55:47.677Z,101104.00
2023-06-23T15:58:16.356Z,101095.00
2023-06-23T16:00:46.426Z,101095.00
2023-06-23T16:03:14.649Z,101092.00
2023-06-23T16:05:43.064Z,101099.00
2023-06-23T16:08:14.386Z,101100.00
2023-06-23T16:10:42.876Z,101101.00
2023-06-23T16:13:11.576Z,101093.00
2023-06-23T16:15:39.509Z,101101.00
2023-06-23T16:18:10.154Z,101099.00
2023-06-23T16:20:40.635Z,101105.00
2023-06-23T16:23:08.800Z,101094.00
2023-06-23T16:25:37.796Z,101090.00
2023-06-23T16:28:07.759Z,101092.00
2023-06-23T16:30:36.128Z,101107.00
2023-06-23T16:33:04.552Z,101113.00
2023-06-23T16:35:33.368Z,101115.00
2023-06-23T16:38:01.860Z,101110.00
2023-06-23T16:40:30.969Z,101115.00
2023-06-23T16:43:01.880Z,101108.00
2023-06-23T16:45:31.745Z,101121.00
2023-06-23T16:48:01.017Z,101119.00
2023-06-23T16:50:29.314Z,101117.00
2023-06-23T16:52:59.121Z,101121.00
2023-06-23T16:55:27.908Z,101122.00
2023-06-23T16:57:57.184Z,101113.00
2023-06-23T17:00:25.397Z,101118.00
2023-06-23T17:02:53.897Z,101106.00
2023-06-23T17:05:23.509Z,101114.00
2023-06-23T17:07:53.144Z,101124.00
2023-06-23T17:10:21.248Z,101126.00
2023-06-23T17:12:50.083Z,101124.00
2023-06-23T17:15:18.600Z,101132.00
2023-06-23T17:17:47.453Z,101127.00
2023-06-23T17:20:15.931Z,101122.00
2023-06-23T17:22:44.565Z,101127.00
2023-06-23T17:25:13.779Z,101130.00
2023-06-23T17:27:42.489Z,101134.00
2023-06-23T17:30:16.989Z,101137.00
2023-06-23T17:32:44.972Z,101129.00
2023-06-23T17:35:13.863Z,101130.00
2023-06-23T17:37:43.120Z,101125.00
2023-06-23T17:40:12.081Z,101127.00
2023-06-23T17:42:39.991Z,101127.00
2023-06-23T17:45:08.745Z,101133.00
2023-06-23T17:47:36.744Z,101124.00
2023-06-23T17:50:04.869Z,101133.00
2023-06-23T17:52:32.782Z,101122.00
2023-06-23T17:55:01.101Z,101126.00
2023-06-23T17:57:29.250Z,101124.00
2023-06-23T17:59:58.174Z,101128.00
2023-06-23T18:02:26.216Z,101133.00
2023-06-23T18:04:54.440Z,101129.00
2023-06-23T18:07:22.886Z,101129.00
2023-06-23T18:09:51.450Z,101131.00
2023-06-23T18:12:19.366Z,101126.00
2023-06-23T18:14:47.720Z,101117.00
2023-06-23T18:17:15.661Z,101122.00
2023-06-23T18:19:43.666Z,101129.00
2023-06-23T18:22:11.586Z,101127.00
2023-06-23T18:24:39.993Z,101121.00
2023-06-23T18:27:08.500Z,101124.00
2023-06-23T18:29:36.282Z,101122.00
2023-06-23T18:32:14.270Z,101115.00
2023-06-23T18:34:44.140Z,101123.00
2023-06-23T18:37:12.531Z,101117.00
2023-06-23T18:39:41.141Z,101118.00
2023-06-23T18:42:10.138Z,101120.00
2023-06-23T18:44:37.865Z,101117.00
2023-06-23T18:47:06.112Z,101124.00
2023-06-23T18:49:34.036Z,101119.00
2023-06-23T18:52:02.398Z,101123.00
2023-06-23T18:54:30.592Z,101118.00
2023-06-23T18:56:59.703Z,101117.00
2023-06-23T18:59:27.997Z,101124.00
2023-06-23T19:01:56.142Z,101120.00
2023-06-23T19:04:24.521Z,101125.00
2023-06-23T19:06:54.831Z,101122.00
2023-06-23T19:09:22.959Z,101129.00
2023-06-23T19:11:50.915Z,101128.00
2023-06-23T19:14:19.270Z,101128.00
2023-06-23T19:16:47.403Z,101124.00
2023-06-23T19:19:16.305Z,101128.00
2023-06-23T19:21:45.123Z,101122.00
2023-06-23T19:24:13.259Z,101131.00
2023-06-23T19:26:41.252Z,101126.00
2023-06-23T19:29:09.361Z,101134.00
2023-06-23T19:31:37.437Z,101138.00
2023-06-23T19:34:05.674Z,101138.00
2023-06-23T19:36:33.688Z,101151.00
2023-06-23T19:39:03.688Z,101146.00
2023-06-23T19:41:31.908Z,101145.00
2023-06-23T19:43:59.889Z,101148.00
2023-06-23T19:46:27.915Z,101151.00
2023-06-23T19:48:56.719Z,101151.00
2023-06-23T19:51:25.658Z,101155.00
2023-06-23T19:53:53.916Z,101161.00
2023-06-23T19:56:22.904Z,101163.00
2023-06-23T19:58:50.723Z,101168.00
2023-06-23T20:01:19.920Z,101172.00
2023-06-23T20:03:49.913Z,101167.00
2023-06-23T20:06:21.754Z,101172.00
2023-06-23T20:08:49.933Z,101173.00
2023-06-23T20:11:21.098Z,101166.00
2023-06-23T20:13:48.982Z,101179.00
2023-06-23T20:16:16.969Z,101178.00
2023-06-23T20:18:45.531Z,101186.00
2023-06-23T20:21:15.810Z,101180.00
2023-06-23T20:23:46.448Z,101178.00
2023-06-23T20:26:14.456Z,101169.00
2023-06-23T20:28:42.865Z,101171.00
2023-06-23T20:31:11.198Z,101177.00
2023-06-23T20:33:40.635Z,101171.00
2023-06-23T20:36:12.299Z,101175.00
2023-06-23T20:38:41.455Z,101180.00
2023-06-23T20:41:10.150Z,101178.00
2023-06-23T20:43:38.175Z,101181.00
2023-06-23T20:46:06.234Z,101178.00
2023-06-23T20:48:40.876Z,101188.00
2023-06-23T20:51:09.292Z,101180.00
2023-06-23T20:53:37.312Z,101181.00
2023-06-23T20:56:05.275Z,101193.00
2023-06-23T20:58:33.070Z,101196.00
2023-06-23T21:01:01.107Z,101199.00
2023-06-23T21:03:29.793Z,101193.00
2023-06-23T21:05:58.590Z,101189.00
2023-06-23T21:08:27.293Z,101190.00
2023-06-23T21:10:57.255Z,101189.00
2023-06-23T21:13:26.480Z,101193.00
2023-06-23T21:15:55.686Z,101195.00
2023-06-23T21:18:23.765Z,101203.00
2023-06-23T21:20:53.841Z,101206.00
2023-06-23T21:23:22.355Z,101211.00
2023-06-23T21:25:51.084Z,101204.00
2023-06-23T21:28:19.813Z,101218.00
2023-06-23T21:30:48.888Z,101213.00
2023-06-23T21:33:19.846Z,101207.00
2023-06-23T21:35:52.670Z,101205.00
2023-06-23T21:38:21.784Z,101210.00
2023-06-23T21:40:50.169Z,101206.00
2023-06-23T21:43:18.748Z,101207.00
2023-06-23T21:45:46.833Z,101216.00
2023-06-23T21:48:18.442Z,101199.00
2023-06-23T21:50:48.272Z,101205.00
2023-06-23T21:53:17.192Z,101209.00
2023-06-23T21:55:45.390Z,101209.00
2023-06-23T21:58:16.658Z,101205.00
2023-06-23T22:00:50.555Z,101213.00
2023-06-23T22:03:20.666Z,101222.00
2023-06-23T22:05:50.618Z,101224.00
2023-06-23T22:08:22.647Z,101220.00
2023-06-23T22:10:52.964Z,101223.00
2023-06-23T22:13:22.631Z,101223.00
2023-06-23T22:15:50.972Z,101216.00
2023-06-23T22:18:41.465Z,101222.00
2023-06-23T22:21:08.924Z,101224.00
2023-06-23T22:23:37.200Z,101227.00
2023-06-23T22:26:07.245Z,101235.00
2023-06-23T22:28:35.201Z,101253.00
2023-06-23T22:31:07.169Z,101253.00
2023-06-23T22:33:41.384Z,101245.00
2023-06-23T22:36:15.810Z,101249.00
2023-06-23T22:38:44.083Z,101246.00
2023-06-23T22:41:13.209Z,101259.00
2023-06-23T22:43:40.802Z,101259.00
2023-06-23T22:46:08.807Z,101252.00
2023-06-23T22:48:36.773Z,101257.00
2023-06-23T22:51:05.005Z,101259.00
2023-06-23T22:53:33.034Z,101270.00
2023-06-23T22:56:00.885Z,101269.00
2023-06-23T22:58:28.820Z,101274.00
2023-06-23T23:00:57.213Z,101269.00
2023-06-23T23:03:25.194Z,101272.00
2023-06-23T23:05:53.954Z,101268.00
2023-06-23T23:08:21.729Z,101268.00
2023-06-23T23:10:50.022Z,101274.00
2023-06-23T23:13:17.737Z,101275.00
2023-06-23T23:15:45.771Z,101279.00
2023-06-23T23:18:14.369Z,101284.00
2023-06-23T23:20:44.529Z,101269.00
2023-06-23T23:23:12.512Z,101282.00
2023-06-23T23:25:42.993Z,101280.00
2023-06-23T23:28:11.139Z,101279.00
2023-06-23T23:30:39.058Z,101272.00
2023-06-23T23:33:07.176Z,101277.00
2023-06-23T23:35:40.832Z,101268.00
2023-06-23T23:38:09.770Z,101270.00
2023-06-23T23:40:38.141Z,101264.00
2023-06-23T23:43:06.993Z,101268.00
2023-06-23T23:45:34.824Z,101261.00
2023-06-23T23:48:02.567Z,101272.00
2023-06-23T23:50:30.186Z,101271.00
2023-06-23T23:52:57.976Z,101269.00
2023-06-23T23:55:26.126Z,101266.00
2023-06-23T23:57:54.305Z,101270.00
